Terminal Aerodrome Forecast
Issued by NWS Wichita, KS

Home | Current Version | Previous Version | Graphics & Text | Print | Product List | Glossary On
Versions: 1 2 3 4 5 6 7 8 9 10 11 12 13 14 15 16 17
000
FTUS43 KICT 290100 AAA
TAFICT
TAF AMD
KICT 290100Z 2901/2924 16010KT P6SM VCTS SCT050CB
      TEMPO 2901/2903 VRB15G35KT 2SM +TSRA OVC030CB
     FM290300 34007KT P6SM VCSH BKN080
     FM290600 35010KT P6SM SCT100
     FM291500 36012KT P6SM SCT035=

USA.gov is the U.S. government's official web portal to all federal, state and local government web resources and services.